sensor_id;sensor_type;location;lat;lon;timestamp;P1;durP1;ratioP1;P2;durP2;ratioP2
76610;SDS011;65503;48.534;9.062;2023-05-07T00:01:13;6.45;;;3.83;;
76610;SDS011;65503;48.534;9.062;2023-05-07T00:03:40;8.68;;;3.97;;
76610;SDS011;65503;48.534;9.062;2023-05-07T00:06:07;6.60;;;3.63;;
76610;SDS011;65503;48.534;9.062;2023-05-07T00:08:33;7.70;;;3.67;;
76610;SDS011;65503;48.534;9.062;2023-05-07T00:11:00;6.13;;;3.30;;
76610;SDS011;65503;48.534;9.062;2023-05-07T00:13:26;6.63;;;4.18;;
76610;SDS011;65503;48.534;9.062;2023-05-07T00:15:53;6.70;;;3.90;;
76610;SDS011;65503;48.534;9.062;2023-05-07T00:18:20;8.50;;;3.92;;
76610;SDS011;65503;48.534;9.062;2023-05-07T00:20:48;6.93;;;3.80;;
76610;SDS011;65503;48.534;9.062;2023-05-07T00:23:15;6.55;;;3.72;;
76610;SDS011;65503;48.534;9.062;2023-05-07T00:25:42;6.70;;;3.58;;
76610;SDS011;65503;48.534;9.062;2023-05-07T00:28:08;7.93;;;3.97;;
76610;SDS011;65503;48.534;9.062;2023-05-07T00:30:34;6.45;;;3.35;;
76610;SDS011;65503;48.534;9.062;2023-05-07T00:33:01;7.85;;;3.45;;
76610;SDS011;65503;48.534;9.062;2023-05-07T00:35:28;5.97;;;3.53;;
76610;SDS011;65503;48.534;9.062;2023-05-07T00:37:55;7.13;;;3.55;;
76610;SDS011;65503;48.534;9.062;2023-05-07T00:40:22;7.43;;;3.60;;
76610;SDS011;65503;48.534;9.062;2023-05-07T00:42:48;7.45;;;3.63;;
76610;SDS011;65503;48.534;9.062;2023-05-07T00:45:15;6.05;;;3.42;;
76610;SDS011;65503;48.534;9.062;2023-05-07T00:47:43;8.05;;;3.53;;
76610;SDS011;65503;48.534;9.062;2023-05-07T00:50:10;6.88;;;3.97;;
76610;SDS011;65503;48.534;9.062;2023-05-07T00:52:39;7.18;;;4.50;;
76610;SDS011;65503;48.534;9.062;2023-05-07T00:55:05;5.97;;;3.45;;
76610;SDS011;65503;48.534;9.062;2023-05-07T00:57:36;6.50;;;3.60;;
76610;SDS011;65503;48.534;9.062;2023-05-07T01:00:04;6.97;;;3.67;;
76610;SDS011;65503;48.534;9.062;2023-05-07T01:02:31;6.43;;;3.90;;
76610;SDS011;65503;48.534;9.062;2023-05-07T01:04:58;6.75;;;3.97;;
76610;SDS011;65503;48.534;9.062;2023-05-07T01:07:26;6.68;;;3.70;;
76610;SDS011;65503;48.534;9.062;2023-05-07T01:09:53;6.65;;;3.83;;
76610;SDS011;65503;48.534;9.062;2023-05-07T01:12:20;6.35;;;3.63;;
76610;SDS011;65503;48.534;9.062;2023-05-07T01:14:47;8.02;;;3.60;;
76610;SDS011;65503;48.534;9.062;2023-05-07T01:17:16;6.03;;;3.60;;
76610;SDS011;65503;48.534;9.062;2023-05-07T01:19:43;6.65;;;3.42;;
76610;SDS011;65503;48.534;9.062;2023-05-07T01:22:10;7.90;;;3.60;;
76610;SDS011;65503;48.534;9.062;2023-05-07T01:24:37;6.38;;;3.83;;
76610;SDS011;65503;48.534;9.062;2023-05-07T01:27:04;5.90;;;3.50;;
76610;SDS011;65503;48.534;9.062;2023-05-07T01:29:31;6.63;;;3.92;;
76610;SDS011;65503;48.534;9.062;2023-05-07T01:31:58;7.53;;;4.07;;
76610;SDS011;65503;48.534;9.062;2023-05-07T01:34:30;6.03;;;3.72;;
76610;SDS011;65503;48.534;9.062;2023-05-07T01:36:58;6.45;;;4.45;;
76610;SDS011;65503;48.534;9.062;2023-05-07T01:39:26;7.47;;;3.90;;
76610;SDS011;65503;48.534;9.062;2023-05-07T01:41:57;6.85;;;3.80;;
76610;SDS011;65503;48.534;9.062;2023-05-07T01:44:25;7.63;;;3.80;;
76610;SDS011;65503;48.534;9.062;2023-05-07T01:46:52;5.85;;;3.50;;
76610;SDS011;65503;48.534;9.062;2023-05-07T01:49:21;6.38;;;3.70;;
76610;SDS011;65503;48.534;9.062;2023-05-07T01:51:47;6.25;;;3.65;;
76610;SDS011;65503;48.534;9.062;2023-05-07T01:54:14;7.32;;;3.88;;
76610;SDS011;65503;48.534;9.062;2023-05-07T01:56:41;6.55;;;4.00;;
76610;SDS011;65503;48.534;9.062;2023-05-07T01:59:08;6.10;;;3.72;;
76610;SDS011;65503;48.534;9.062;2023-05-07T02:01:35;9.27;;;4.35;;
76610;SDS011;65503;48.534;9.062;2023-05-07T02:04:02;7.13;;;4.25;;
76610;SDS011;65503;48.534;9.062;2023-05-07T02:06:28;7.43;;;4.25;;
76610;SDS011;65503;48.534;9.062;2023-05-07T02:08:55;6.68;;;3.60;;
76610;SDS011;65503;48.534;9.062;2023-05-07T02:11:22;7.78;;;4.63;;
76610;SDS011;65503;48.534;9.062;2023-05-07T02:13:48;6.32;;;3.83;;
76610;SDS011;65503;48.534;9.062;2023-05-07T02:16:15;6.90;;;3.85;;
76610;SDS011;65503;48.534;9.062;2023-05-07T02:18:41;5.97;;;3.83;;
76610;SDS011;65503;48.534;9.062;2023-05-07T02:21:08;6.95;;;3.90;;
76610;SDS011;65503;48.534;9.062;2023-05-07T02:23:35;8.13;;;4.30;;
76610;SDS011;65503;48.534;9.062;2023-05-07T02:26:01;7.45;;;3.92;;
76610;SDS011;65503;48.534;9.062;2023-05-07T02:28:28;8.52;;;4.10;;
76610;SDS011;65503;48.534;9.062;2023-05-07T02:30:55;8.07;;;4.60;;
76610;SDS011;65503;48.534;9.062;2023-05-07T02:33:21;8.10;;;4.35;;
76610;SDS011;65503;48.534;9.062;2023-05-07T02:35:47;8.05;;;4.50;;
76610;SDS011;65503;48.534;9.062;2023-05-07T02:38:14;8.45;;;4.65;;
76610;SDS011;65503;48.534;9.062;2023-05-07T02:40:41;8.98;;;4.85;;
76610;SDS011;65503;48.534;9.062;2023-05-07T02:43:07;14.75;;;5.68;;
76610;SDS011;65503;48.534;9.062;2023-05-07T02:45:34;8.15;;;4.65;;
76610;SDS011;65503;48.534;9.062;2023-05-07T02:48:02;7.90;;;5.32;;
76610;SDS011;65503;48.534;9.062;2023-05-07T02:50:29;10.02;;;4.95;;
76610;SDS011;65503;48.534;9.062;2023-05-07T02:52:55;7.22;;;4.38;;
76610;SDS011;65503;48.534;9.062;2023-05-07T02:55:22;8.02;;;4.55;;
76610;SDS011;65503;48.534;9.062;2023-05-07T02:57:48;7.75;;;4.75;;
76610;SDS011;65503;48.534;9.062;2023-05-07T03:00:16;16.05;;;4.60;;
76610;SDS011;65503;48.534;9.062;2023-05-07T03:02:44;8.25;;;4.57;;
76610;SDS011;65503;48.534;9.062;2023-05-07T03:05:11;7.05;;;4.00;;
76610;SDS011;65503;48.534;9.062;2023-05-07T03:07:38;8.13;;;4.90;;
76610;SDS011;65503;48.534;9.062;2023-05-07T03:10:05;8.48;;;4.43;;
76610;SDS011;65503;48.534;9.062;2023-05-07T03:12:32;10.10;;;5.05;;
76610;SDS011;65503;48.534;9.062;2023-05-07T03:14:59;7.25;;;4.25;;
76610;SDS011;65503;48.534;9.062;2023-05-07T03:17:25;7.75;;;4.25;;
76610;SDS011;65503;48.534;9.062;2023-05-07T03:19:52;9.55;;;4.55;;
76610;SDS011;65503;48.534;9.062;2023-05-07T03:22:19;6.82;;;4.28;;
76610;SDS011;65503;48.534;9.062;2023-05-07T03:24:45;8.52;;;4.38;;
76610;SDS011;65503;48.534;9.062;2023-05-07T03:27:12;7.65;;;4.45;;
76610;SDS011;65503;48.534;9.062;2023-05-07T03:29:39;7.90;;;4.60;;
76610;SDS011;65503;48.534;9.062;2023-05-07T03:32:05;7.97;;;4.50;;
76610;SDS011;65503;48.534;9.062;2023-05-07T03:34:32;8.27;;;4.28;;
76610;SDS011;65503;48.534;9.062;2023-05-07T03:36:59;8.55;;;4.80;;
76610;SDS011;65503;48.534;9.062;2023-05-07T03:39:26;10.30;;;5.57;;
76610;SDS011;65503;48.534;9.062;2023-05-07T03:41:52;9.05;;;5.20;;
76610;SDS011;65503;48.534;9.062;2023-05-07T03:44:19;8.18;;;5.15;;
76610;SDS011;65503;48.534;9.062;2023-05-07T03:46:46;9.63;;;4.88;;
76610;SDS011;65503;48.534;9.062;2023-05-07T03:49:12;9.50;;;5.25;;
76610;SDS011;65503;48.534;9.062;2023-05-07T03:51:39;9.88;;;5.22;;
76610;SDS011;65503;48.534;9.062;2023-05-07T03:54:06;10.55;;;6.15;;
76610;SDS011;65503;48.534;9.062;2023-05-07T03:56:32;10.55;;;5.82;;
76610;SDS011;65503;48.534;9.062;2023-05-07T03:58:59;11.23;;;5.70;;
76610;SDS011;65503;48.534;9.062;2023-05-07T04:01:26;9.50;;;5.40;;
76610;SDS011;65503;48.534;9.062;2023-05-07T04:03:53;9.10;;;5.28;;
76610;SDS011;65503;48.534;9.062;2023-05-07T04:06:20;10.07;;;5.63;;
76610;SDS011;65503;48.534;9.062;2023-05-07T04:08:46;8.38;;;5.30;;
76610;SDS011;65503;48.534;9.062;2023-05-07T04:11:13;11.07;;;5.90;;
76610;SDS011;65503;48.534;9.062;2023-05-07T04:13:39;10.20;;;5.78;;
76610;SDS011;65503;48.534;9.062;2023-05-07T04:16:06;8.80;;;5.63;;
76610;SDS011;65503;48.534;9.062;2023-05-07T04:18:33;11.93;;;5.82;;
76610;SDS011;65503;48.534;9.062;2023-05-07T04:20:59;9.07;;;5.60;;
76610;SDS011;65503;48.534;9.062;2023-05-07T04:23:26;8.20;;;4.97;;
76610;SDS011;65503;48.534;9.062;2023-05-07T04:25:52;9.23;;;5.20;;
76610;SDS011;65503;48.534;9.062;2023-05-07T04:28:20;9.52;;;6.00;;
76610;SDS011;65503;48.534;9.062;2023-05-07T04:30:46;9.43;;;5.30;;
76610;SDS011;65503;48.534;9.062;2023-05-07T04:33:14;11.15;;;6.40;;
76610;SDS011;65503;48.534;9.062;2023-05-07T04:35:43;9.10;;;5.95;;
76610;SDS011;65503;48.534;9.062;2023-05-07T04:38:09;10.48;;;5.38;;
76610;SDS011;65503;48.534;9.062;2023-05-07T04:40:36;11.68;;;6.22;;
76610;SDS011;65503;48.534;9.062;2023-05-07T04:43:03;9.07;;;5.40;;
76610;SDS011;65503;48.534;9.062;2023-05-07T04:45:29;8.63;;;5.50;;
76610;SDS011;65503;48.534;9.062;2023-05-07T04:47:56;8.98;;;5.10;;
76610;SDS011;65503;48.534;9.062;2023-05-07T04:50:22;9.45;;;5.20;;
76610;SDS011;65503;48.534;9.062;2023-05-07T04:55:17;7.32;;;3.10;;
76610;SDS011;65503;48.534;9.062;2023-05-07T04:57:43;6.28;;;3.70;;
76610;SDS011;65503;48.534;9.062;2023-05-07T05:00:10;7.82;;;3.90;;
76610;SDS011;65503;48.534;9.062;2023-05-07T05:02:37;7.70;;;3.65;;
76610;SDS011;65503;48.534;9.062;2023-05-07T05:05:03;5.88;;;3.70;;
76610;SDS011;65503;48.534;9.062;2023-05-07T05:07:30;10.48;;;3.08;;
76610;SDS011;65503;48.534;9.062;2023-05-07T05:09:57;7.65;;;3.67;;
76610;SDS011;65503;48.534;9.062;2023-05-07T05:12:24;5.30;;;3.05;;
76610;SDS011;65503;48.534;9.062;2023-05-07T05:14:51;6.13;;;3.10;;
76610;SDS011;65503;48.534;9.062;2023-05-07T05:17:17;4.70;;;2.85;;
76610;SDS011;65503;48.534;9.062;2023-05-07T05:19:44;4.70;;;2.90;;
76610;SDS011;65503;48.534;9.062;2023-05-07T05:22:11;5.32;;;2.78;;
76610;SDS011;65503;48.534;9.062;2023-05-07T05:24:37;4.13;;;2.42;;
76610;SDS011;65503;48.534;9.062;2023-05-07T05:27:04;9.27;;;2.83;;
76610;SDS011;65503;48.534;9.062;2023-05-07T05:29:31;5.93;;;2.75;;
76610;SDS011;65503;48.534;9.062;2023-05-07T05:31:58;4.80;;;2.53;;
76610;SDS011;65503;48.534;9.062;2023-05-07T05:34:24;5.10;;;2.65;;
76610;SDS011;65503;48.534;9.062;2023-05-07T05:36:51;5.38;;;2.80;;
76610;SDS011;65503;48.534;9.062;2023-05-07T05:39:17;4.70;;;2.58;;
76610;SDS011;65503;48.534;9.062;2023-05-07T05:41:44;4.00;;;2.50;;
76610;SDS011;65503;48.534;9.062;2023-05-07T05:44:10;4.95;;;2.50;;
76610;SDS011;65503;48.534;9.062;2023-05-07T05:46:37;5.63;;;2.70;;
76610;SDS011;65503;48.534;9.062;2023-05-07T05:49:03;10.63;;;2.60;;
76610;SDS011;65503;48.534;9.062;2023-05-07T05:51:30;4.38;;;2.42;;
76610;SDS011;65503;48.534;9.062;2023-05-07T05:53:57;5.15;;;2.92;;
76610;SDS011;65503;48.534;9.062;2023-05-07T05:56:23;4.80;;;2.70;;
76610;SDS011;65503;48.534;9.062;2023-05-07T05:58:49;5.63;;;2.55;;
76610;SDS011;65503;48.534;9.062;2023-05-07T06:01:16;5.43;;;2.60;;
76610;SDS011;65503;48.534;9.062;2023-05-07T06:03:44;5.57;;;2.75;;
76610;SDS011;65503;48.534;9.062;2023-05-07T06:06:10;6.65;;;2.75;;
76610;SDS011;65503;48.534;9.062;2023-05-07T06:08:37;4.53;;;2.55;;
76610;SDS011;65503;48.534;9.062;2023-05-07T06:11:03;4.68;;;2.45;;
76610;SDS011;65503;48.534;9.062;2023-05-07T06:13:29;4.97;;;2.50;;
76610;SDS011;65503;48.534;9.062;2023-05-07T06:15:56;4.85;;;2.50;;
76610;SDS011;65503;48.534;9.062;2023-05-07T06:18:23;5.03;;;2.60;;
76610;SDS011;65503;48.534;9.062;2023-05-07T06:20:49;4.43;;;2.63;;
76610;SDS011;65503;48.534;9.062;2023-05-07T06:23:16;4.25;;;2.70;;
76610;SDS011;65503;48.534;9.062;2023-05-07T06:25:47;5.00;;;2.30;;
76610;SDS011;65503;48.534;9.062;2023-05-07T06:28:15;4.30;;;2.40;;
76610;SDS011;65503;48.534;9.062;2023-05-07T06:30:42;5.88;;;2.63;;
76610;SDS011;65503;48.534;9.062;2023-05-07T06:33:09;5.82;;;2.70;;
76610;SDS011;65503;48.534;9.062;2023-05-07T06:35:36;5.05;;;2.58;;
76610;SDS011;65503;48.534;9.062;2023-05-07T06:38:02;5.40;;;3.03;;
76610;SDS011;65503;48.534;9.062;2023-05-07T06:40:29;5.00;;;3.00;;
76610;SDS011;65503;48.534;9.062;2023-05-07T06:42:55;6.90;;;2.60;;
76610;SDS011;65503;48.534;9.062;2023-05-07T06:45:22;5.18;;;2.75;;
76610;SDS011;65503;48.534;9.062;2023-05-07T06:47:48;4.13;;;2.45;;
76610;SDS011;65503;48.534;9.062;2023-05-07T06:50:15;6.88;;;2.88;;
76610;SDS011;65503;48.534;9.062;2023-05-07T06:52:43;3.92;;;2.30;;
76610;SDS011;65503;48.534;9.062;2023-05-07T06:55:09;4.97;;;2.25;;
76610;SDS011;65503;48.534;9.062;2023-05-07T06:57:37;4.45;;;2.35;;
76610;SDS011;65503;48.534;9.062;2023-05-07T07:00:05;4.25;;;2.42;;
76610;SDS011;65503;48.534;9.062;2023-05-07T07:02:36;5.57;;;2.47;;
76610;SDS011;65503;48.534;9.062;2023-05-07T07:07:29;4.95;;;2.42;;
76610;SDS011;65503;48.534;9.062;2023-05-07T07:09:56;4.43;;;2.47;;
76610;SDS011;65503;48.534;9.062;2023-05-07T07:12:23;6.25;;;2.50;;
76610;SDS011;65503;48.534;9.062;2023-05-07T07:14:51;6.05;;;2.75;;
76610;SDS011;65503;48.534;9.062;2023-05-07T07:17:17;8.70;;;2.90;;
76610;SDS011;65503;48.534;9.062;2023-05-07T07:19:44;6.07;;;2.70;;
76610;SDS011;65503;48.534;9.062;2023-05-07T07:22:11;4.00;;;2.53;;
76610;SDS011;65503;48.534;9.062;2023-05-07T07:24:37;5.13;;;2.67;;
76610;SDS011;65503;48.534;9.062;2023-05-07T07:27:04;9.02;;;3.10;;
76610;SDS011;65503;48.534;9.062;2023-05-07T07:29:31;5.07;;;2.10;;
76610;SDS011;65503;48.534;9.062;2023-05-07T07:31:58;3.95;;;2.15;;
76610;SDS011;65503;48.534;9.062;2023-05-07T07:34:24;3.90;;;2.33;;
76610;SDS011;65503;48.534;9.062;2023-05-07T07:36:51;4.93;;;2.45;;
76610;SDS011;65503;48.534;9.062;2023-05-07T07:39:17;6.10;;;2.88;;
76610;SDS011;65503;48.534;9.062;2023-05-07T07:44:10;4.53;;;2.63;;
76610;SDS011;65503;48.534;9.062;2023-05-07T07:46:41;5.20;;;2.55;;
76610;SDS011;65503;48.534;9.062;2023-05-07T07:49:08;7.45;;;2.70;;
76610;SDS011;65503;48.534;9.062;2023-05-07T07:51:34;4.93;;;2.92;;
76610;SDS011;65503;48.534;9.062;2023-05-07T07:54:01;5.25;;;2.90;;
76610;SDS011;65503;48.534;9.062;2023-05-07T07:56:28;3.85;;;2.35;;
76610;SDS011;65503;48.534;9.062;2023-05-07T07:58:55;5.25;;;2.63;;
76610;SDS011;65503;48.534;9.062;2023-05-07T08:01:21;5.22;;;2.72;;
76610;SDS011;65503;48.534;9.062;2023-05-07T08:03:48;4.25;;;2.60;;
76610;SDS011;65503;48.534;9.062;2023-05-07T08:06:15;4.72;;;2.72;;
76610;SDS011;65503;48.534;9.062;2023-05-07T08:08:41;4.50;;;2.72;;
76610;SDS011;65503;48.534;9.062;2023-05-07T08:11:08;7.18;;;2.53;;
76610;SDS011;65503;48.534;9.062;2023-05-07T08:13:34;5.07;;;2.58;;
76610;SDS011;65503;48.534;9.062;2023-05-07T08:16:01;4.68;;;2.53;;
76610;SDS011;65503;48.534;9.062;2023-05-07T08:18:27;4.82;;;2.60;;
76610;SDS011;65503;48.534;9.062;2023-05-07T08:20:55;5.03;;;2.78;;
76610;SDS011;65503;48.534;9.062;2023-05-07T08:23:21;6.35;;;2.30;;
76610;SDS011;65503;48.534;9.062;2023-05-07T08:25:48;4.63;;;2.47;;
76610;SDS011;65503;48.534;9.062;2023-05-07T08:28:15;5.43;;;2.20;;
76610;SDS011;65503;48.534;9.062;2023-05-07T08:30:42;4.25;;;2.00;;
76610;SDS011;65503;48.534;9.062;2023-05-07T08:35:35;3.88;;;2.05;;
76610;SDS011;65503;48.534;9.062;2023-05-07T08:38:02;4.72;;;2.53;;
76610;SDS011;65503;48.534;9.062;2023-05-07T08:42:55;3.42;;;1.85;;
76610;SDS011;65503;48.534;9.062;2023-05-07T08:45:23;4.10;;;2.30;;
76610;SDS011;65503;48.534;9.062;2023-05-07T08:47:51;4.85;;;2.00;;
76610;SDS011;65503;48.534;9.062;2023-05-07T08:50:21;5.80;;;2.10;;
76610;SDS011;65503;48.534;9.062;2023-05-07T08:52:48;4.63;;;2.05;;
76610;SDS011;65503;48.534;9.062;2023-05-07T08:55:15;4.25;;;2.10;;
76610;SDS011;65503;48.534;9.062;2023-05-07T08:57:43;4.30;;;1.75;;
76610;SDS011;65503;48.534;9.062;2023-05-07T09:00:09;3.67;;;1.95;;
76610;SDS011;65503;48.534;9.062;2023-05-07T09:02:37;3.28;;;1.98;;
76610;SDS011;65503;48.534;9.062;2023-05-07T09:05:04;4.45;;;2.00;;
76610;SDS011;65503;48.534;9.062;2023-05-07T09:07:30;3.47;;;2.00;;
76610;SDS011;65503;48.534;9.062;2023-05-07T09:09:57;4.20;;;2.10;;
76610;SDS011;65503;48.534;9.062;2023-05-07T09:12:24;3.97;;;1.80;;
76610;SDS011;65503;48.534;9.062;2023-05-07T09:14:50;4.78;;;1.80;;
76610;SDS011;65503;48.534;9.062;2023-05-07T09:17:17;4.50;;;1.95;;
76610;SDS011;65503;48.534;9.062;2023-05-07T09:19:44;4.78;;;2.00;;
76610;SDS011;65503;48.534;9.062;2023-05-07T09:22:14;4.05;;;2.08;;
76610;SDS011;65503;48.534;9.062;2023-05-07T09:24:41;3.28;;;2.00;;
76610;SDS011;65503;48.534;9.062;2023-05-07T09:29:40;4.40;;;2.45;;
76610;SDS011;65503;48.534;9.062;2023-05-07T09:32:08;3.05;;;1.77;;
76610;SDS011;65503;48.534;9.062;2023-05-07T09:34:34;4.18;;;2.30;;
76610;SDS011;65503;48.534;9.062;2023-05-07T09:37:02;3.38;;;2.05;;
76610;SDS011;65503;48.534;9.062;2023-05-07T09:39:43;3.92;;;2.30;;
76610;SDS011;65503;48.534;9.062;2023-05-07T09:42:13;6.13;;;2.20;;
76610;SDS011;65503;48.534;9.062;2023-05-07T09:44:45;2.97;;;1.80;;
76610;SDS011;65503;48.534;9.062;2023-05-07T09:47:14;3.17;;;1.67;;
76610;SDS011;65503;48.534;9.062;2023-05-07T09:49:46;3.95;;;1.90;;
76610;SDS011;65503;48.534;9.062;2023-05-07T09:52:14;3.53;;;1.88;;
76610;SDS011;65503;48.534;9.062;2023-05-07T09:54:41;4.88;;;2.08;;
76610;SDS011;65503;48.534;9.062;2023-05-07T09:57:12;4.03;;;2.03;;
76610;SDS011;65503;48.534;9.062;2023-05-07T09:59:41;3.53;;;1.90;;
76610;SDS011;65503;48.534;9.062;2023-05-07T10:02:09;4.15;;;2.15;;
76610;SDS011;65503;48.534;9.062;2023-05-07T10:04:36;3.65;;;2.00;;
76610;SDS011;65503;48.534;9.062;2023-05-07T10:07:03;3.17;;;1.92;;
76610;SDS011;65503;48.534;9.062;2023-05-07T10:09:31;3.35;;;1.70;;
76610;SDS011;65503;48.534;9.062;2023-05-07T10:11:58;3.97;;;1.85;;
76610;SDS011;65503;48.534;9.062;2023-05-07T10:14:25;3.17;;;1.85;;
76610;SDS011;65503;48.534;9.062;2023-05-07T10:16:54;4.30;;;1.80;;
76610;SDS011;65503;48.534;9.062;2023-05-07T10:19:21;4.80;;;2.10;;
76610;SDS011;65503;48.534;9.062;2023-05-07T10:21:51;2.92;;;1.80;;
76610;SDS011;65503;48.534;9.062;2023-05-07T10:24:26;5.63;;;2.35;;
76610;SDS011;65503;48.534;9.062;2023-05-07T10:27:00;3.78;;;2.15;;
76610;SDS011;65503;48.534;9.062;2023-05-07T10:32:37;3.45;;;2.10;;
76610;SDS011;65503;48.534;9.062;2023-05-07T10:35:09;4.55;;;1.90;;
76610;SDS011;65503;48.534;9.062;2023-05-07T10:37:40;3.00;;;2.13;;
76610;SDS011;65503;48.534;9.062;2023-05-07T10:40:08;5.30;;;2.40;;
76610;SDS011;65503;48.534;9.062;2023-05-07T10:42:36;2.88;;;1.90;;
76610;SDS011;65503;48.534;9.062;2023-05-07T10:45:12;4.95;;;2.00;;
76610;SDS011;65503;48.534;9.062;2023-05-07T10:50:43;4.80;;;2.40;;
76610;SDS011;65503;48.534;9.062;2023-05-07T10:55:49;3.67;;;1.90;;
76610;SDS011;65503;48.534;9.062;2023-05-07T10:58:26;4.53;;;2.17;;
76610;SDS011;65503;48.534;9.062;2023-05-07T11:01:01;4.30;;;2.10;;
76610;SDS011;65503;48.534;9.062;2023-05-07T11:03:28;3.78;;;1.75;;
76610;SDS011;65503;48.534;9.062;2023-05-07T11:06:14;3.40;;;1.90;;
76610;SDS011;65503;48.534;9.062;2023-05-07T11:08:54;4.90;;;2.28;;
76610;SDS011;65503;48.534;9.062;2023-05-07T11:14:13;3.13;;;1.73;;
76610;SDS011;65503;48.534;9.062;2023-05-07T11:17:03;4.25;;;2.00;;
76610;SDS011;65503;48.534;9.062;2023-05-07T11:19:51;4.78;;;2.00;;
76610;SDS011;65503;48.534;9.062;2023-05-07T11:24:59;3.20;;;1.77;;
76610;SDS011;65503;48.534;9.062;2023-05-07T11:27:26;3.08;;;1.90;;
76610;SDS011;65503;48.534;9.062;2023-05-07T11:29:53;3.72;;;1.75;;
76610;SDS011;65503;48.534;9.062;2023-05-07T11:32:23;3.75;;;1.92;;
76610;SDS011;65503;48.534;9.062;2023-05-07T11:34:57;4.85;;;1.95;;
76610;SDS011;65503;48.534;9.062;2023-05-07T11:37:26;3.08;;;1.70;;
76610;SDS011;65503;48.534;9.062;2023-05-07T11:42:31;3.63;;;2.00;;
76610;SDS011;65503;48.534;9.062;2023-05-07T11:45:00;5.03;;;2.05;;
76610;SDS011;65503;48.534;9.062;2023-05-07T11:47:29;3.30;;;1.70;;
76610;SDS011;65503;48.534;9.062;2023-05-07T11:49:57;4.15;;;1.80;;
76610;SDS011;65503;48.534;9.062;2023-05-07T11:52:29;3.80;;;1.90;;
76610;SDS011;65503;48.534;9.062;2023-05-07T11:54:57;3.17;;;2.00;;
76610;SDS011;65503;48.534;9.062;2023-05-07T11:57:24;5.20;;;2.00;;
76610;SDS011;65503;48.534;9.062;2023-05-07T11:59:57;2.78;;;1.85;;
76610;SDS011;65503;48.534;9.062;2023-05-07T12:04:52;3.72;;;2.10;;
76610;SDS011;65503;48.534;9.062;2023-05-07T12:07:19;3.00;;;1.63;;
76610;SDS011;65503;48.534;9.062;2023-05-07T12:09:46;6.32;;;2.30;;
76610;SDS011;65503;48.534;9.062;2023-05-07T12:12:13;4.00;;;1.80;;
76610;SDS011;65503;48.534;9.062;2023-05-07T12:14:44;3.95;;;2.08;;
76610;SDS011;65503;48.534;9.062;2023-05-07T12:17:12;2.05;;;1.50;;
76610;SDS011;65503;48.534;9.062;2023-05-07T12:19:41;2.53;;;1.63;;
76610;SDS011;65503;48.534;9.062;2023-05-07T12:22:10;3.53;;;1.70;;
76610;SDS011;65503;48.534;9.062;2023-05-07T12:24:44;3.88;;;2.30;;
76610;SDS011;65503;48.534;9.062;2023-05-07T12:27:29;4.75;;;1.90;;
76610;SDS011;65503;48.534;9.062;2023-05-07T12:29:57;3.42;;;1.85;;
76610;SDS011;65503;48.534;9.062;2023-05-07T12:32:25;5.20;;;2.08;;
76610;SDS011;65503;48.534;9.062;2023-05-07T12:34:52;3.15;;;1.83;;
76610;SDS011;65503;48.534;9.062;2023-05-07T12:37:23;6.00;;;2.25;;
76610;SDS011;65503;48.534;9.062;2023-05-07T12:40:07;3.58;;;2.17;;
76610;SDS011;65503;48.534;9.062;2023-05-07T12:42:36;3.95;;;1.92;;
76610;SDS011;65503;48.534;9.062;2023-05-07T12:45:10;4.32;;;1.80;;
76610;SDS011;65503;48.534;9.062;2023-05-07T12:47:38;4.57;;;1.85;;
76610;SDS011;65503;48.534;9.062;2023-05-07T12:50:06;5.05;;;2.20;;
76610;SDS011;65503;48.534;9.062;2023-05-07T12:52:34;4.55;;;2.13;;
76610;SDS011;65503;48.534;9.062;2023-05-07T12:55:04;5.22;;;2.00;;
76610;SDS011;65503;48.534;9.062;2023-05-07T12:57:39;3.83;;;2.25;;
76610;SDS011;65503;48.534;9.062;2023-05-07T13:00:07;5.60;;;2.08;;
76610;SDS011;65503;48.534;9.062;2023-05-07T13:02:38;5.25;;;2.03;;
76610;SDS011;65503;48.534;9.062;2023-05-07T13:05:06;5.18;;;2.78;;
76610;SDS011;65503;48.534;9.062;2023-05-07T13:09:59;7.40;;;2.50;;
76610;SDS011;65503;48.534;9.062;2023-05-07T13:12:26;10.73;;;3.88;;
76610;SDS011;65503;48.534;9.062;2023-05-07T13:14:52;11.32;;;3.90;;
76610;SDS011;65503;48.534;9.062;2023-05-07T13:17:19;20.95;;;5.80;;
76610;SDS011;65503;48.534;9.062;2023-05-07T13:19:45;17.27;;;4.82;;
76610;SDS011;65503;48.534;9.062;2023-05-07T13:22:12;6.22;;;3.08;;
76610;SDS011;65503;48.534;9.062;2023-05-07T13:24:39;10.95;;;5.75;;
76610;SDS011;65503;48.534;9.062;2023-05-07T13:27:07;11.27;;;5.82;;
76610;SDS011;65503;48.534;9.062;2023-05-07T13:29:34;10.68;;;6.15;;
76610;SDS011;65503;48.534;9.062;2023-05-07T13:32:02;9.35;;;5.68;;
76610;SDS011;65503;48.534;9.062;2023-05-07T13:34:28;12.65;;;6.60;;
76610;SDS011;65503;48.534;9.062;2023-05-07T13:36:55;11.20;;;6.65;;
76610;SDS011;65503;48.534;9.062;2023-05-07T13:39:22;9.43;;;6.43;;
76610;SDS011;65503;48.534;9.062;2023-05-07T13:41:48;10.95;;;7.22;;
76610;SDS011;65503;48.534;9.062;2023-05-07T13:44:15;9.95;;;6.18;;
76610;SDS011;65503;48.534;9.062;2023-05-07T13:46:41;11.40;;;5.47;;
76610;SDS011;65503;48.534;9.062;2023-05-07T13:49:08;11.65;;;6.28;;
76610;SDS011;65503;48.534;9.062;2023-05-07T13:51:35;8.50;;;5.15;;
76610;SDS011;65503;48.534;9.062;2023-05-07T13:54:01;10.93;;;5.95;;
76610;SDS011;65503;48.534;9.062;2023-05-07T13:56:29;10.13;;;5.65;;
76610;SDS011;65503;48.534;9.062;2023-05-07T13:58:57;10.32;;;5.78;;
76610;SDS011;65503;48.534;9.062;2023-05-07T14:01:26;12.25;;;6.72;;
76610;SDS011;65503;48.534;9.062;2023-05-07T14:03:53;17.05;;;6.78;;
76610;SDS011;65503;48.534;9.062;2023-05-07T14:06:20;16.88;;;7.80;;
76610;SDS011;65503;48.534;9.062;2023-05-07T14:08:46;10.68;;;7.13;;
76610;SDS011;65503;48.534;9.062;2023-05-07T14:11:13;12.68;;;7.68;;
76610;SDS011;65503;48.534;9.062;2023-05-07T14:13:39;14.18;;;7.95;;
76610;SDS011;65503;48.534;9.062;2023-05-07T14:16:06;13.90;;;7.10;;
76610;SDS011;65503;48.534;9.062;2023-05-07T14:18:32;17.02;;;7.80;;
76610;SDS011;65503;48.534;9.062;2023-05-07T14:21:00;11.82;;;7.20;;
76610;SDS011;65503;48.534;9.062;2023-05-07T14:23:27;11.43;;;7.00;;
76610;SDS011;65503;48.534;9.062;2023-05-07T14:25:53;11.73;;;7.15;;
76610;SDS011;65503;48.534;9.062;2023-05-07T14:28:20;12.43;;;7.10;;
76610;SDS011;65503;48.534;9.062;2023-05-07T14:30:47;10.63;;;6.68;;
76610;SDS011;65503;48.534;9.062;2023-05-07T14:33:13;13.75;;;6.38;;
76610;SDS011;65503;48.534;9.062;2023-05-07T14:35:40;10.90;;;5.88;;
76610;SDS011;65503;48.534;9.062;2023-05-07T14:38:07;10.10;;;6.25;;
76610;SDS011;65503;48.534;9.062;2023-05-07T14:40:33;10.35;;;4.97;;
76610;SDS011;65503;48.534;9.062;2023-05-07T14:43:00;9.07;;;5.28;;
76610;SDS011;65503;48.534;9.062;2023-05-07T14:45:26;9.00;;;4.45;;
76610;SDS011;65503;48.534;9.062;2023-05-07T14:47:53;7.57;;;4.05;;
76610;SDS011;65503;48.534;9.062;2023-05-07T14:50:20;9.63;;;6.50;;
76610;SDS011;65503;48.534;9.062;2023-05-07T14:52:46;9.15;;;5.22;;
76610;SDS011;65503;48.534;9.062;2023-05-07T14:55:13;8.38;;;4.88;;
76610;SDS011;65503;48.534;9.062;2023-05-07T14:57:39;15.52;;;8.77;;
76610;SDS011;65503;48.534;9.062;2023-05-07T15:00:06;10.05;;;6.45;;
76610;SDS011;65503;48.534;9.062;2023-05-07T15:02:34;14.63;;;8.80;;
76610;SDS011;65503;48.534;9.062;2023-05-07T15:05:01;11.00;;;6.18;;
76610;SDS011;65503;48.534;9.062;2023-05-07T15:07:27;7.65;;;4.60;;
76610;SDS011;65503;48.534;9.062;2023-05-07T15:09:54;9.18;;;4.97;;
76610;SDS011;65503;48.534;9.062;2023-05-07T15:12:21;9.40;;;5.28;;
76610;SDS011;65503;48.534;9.062;2023-05-07T15:14:47;8.55;;;5.32;;
76610;SDS011;65503;48.534;9.062;2023-05-07T15:17:14;7.30;;;5.22;;
76610;SDS011;65503;48.534;9.062;2023-05-07T15:19:41;7.95;;;4.22;;
76610;SDS011;65503;48.534;9.062;2023-05-07T15:22:07;9.30;;;4.50;;
76610;SDS011;65503;48.534;9.062;2023-05-07T15:24:34;9.70;;;4.40;;